Latest Weather Observations for Perth

IDW60801

Issued at 5:02 pm WST Saturday 30 April 2016 (issued every 30 minutes, with the page automatically refreshed every 10 minutes)

About weather observations | Map of weather stations | Latest weather observations for WA | Other Formats
Station Details ID: 009225 Name: PERTH METRO Lat: -31.92 Lon: 115.87 Height: 24.9 m
Data from the previous 72 hours. | See also: Recent months at Perth
Date/Time
WST
Temp
°C
App
Temp
°C
Dew
Point
Rel
Hum
%
Delta-T
°C
Wind Press
QNH
hPa
Press
MSL
hPa
Rain
since 9 am
mm
Dir
 
Spd
km/h
Gust
km/h
Spd
kts
Gust
kts
30/05:00pm 17.0 14.4 7.6 54 4.7 SW 11 17 6 9 1020.2 1020.1 0.0
30/04:30pm 17.9 15.2 7.3 50 5.3 SW 11 19 6 10 1020.1 1020.0 0.0
30/04:00pm 18.4 15.2 6.9 47 5.7 SW 13 22 7 12 1020.1 1020.0 0.0
30/03:30pm 18.5 16.5 7.0 47 5.8 S 7 13 4 7 1019.9 1019.8 0.0
30/03:00pm 18.6 16.2 6.8 46 5.9 S 9 19 5 10 1019.8 1019.7 0.0
30/02:30pm 19.2 16.7 6.7 44 6.3 SW 9 20 5 11 1019.7 1019.6 0.0
30/02:00pm 18.8 16.5 7.3 47 5.8 S 9 17 5 9 1019.9 1019.8 0.0
30/01:30pm 18.6 15.0 6.8 46 5.9 SSW 15 20 8 11 1019.9 1019.8 0.0
30/01:00pm 18.6 15.4 6.8 46 5.9 SSE 13 20 7 11 1020.1 1020.0 0.0
30/12:30pm 18.2 15.6 6.1 45 6.0 SSE 9 19 5 10 1020.4 1020.3 0.0
30/12:00pm 17.6 14.2 5.9 46 5.7 S 13 26 7 14 1020.8 1020.7 0.0
30/11:30am 17.5 13.8 6.1 47 5.6 SSE 15 24 8 13 1020.9 1020.8 0.0
30/11:00am 17.0 13.3 6.2 49 5.3 SSE 15 24 8 13 1021.0 1020.9 0.0
30/10:30am 16.4 13.6 7.1 54 4.6 SSE 11 19 6 10 1021.1 1021.0 0.0
30/10:00am 16.2 13.8 8.7 61 3.8 SSE 11 17 6 9 1021.2 1021.1 0.0
30/09:30am 15.4 13.2 7.9 61 3.8 SE 9 17 5 9 1021.2 1021.1 0.0
30/09:00am 14.6 12.4 7.9 64 3.3 SSE 9 15 5 8 1021.1 1021.0 3.8
30/08:30am 14.2 12.6 8.8 70 2.7 SE 7 11 4 6 1020.8 1020.7 3.8
30/08:00am 13.6 12.2 8.7 72 2.5 ESE 6 11 3 6 1020.5 1020.4 3.8
30/07:30am 13.1 11.7 8.8 75 2.2 ESE 6 11 3 6 1019.9 1019.8 3.8
30/07:00am 12.8 11.4 8.9 77 2.0 ESE 6 7 3 4 1019.4 1019.3 3.8
30/06:30am 12.8 11.4 8.7 76 2.1 SE 6 9 3 5 1019.1 1019.0 3.8
30/06:00am 12.8 11.5 9.1 78 1.9 SSE 6 9 3 5 1019.0 1018.9 3.8
30/05:30am 12.8 11.9 9.4 80 1.7 SSE 4 11 2 6 1018.6 1018.5 3.8
30/05:00am 12.8 11.7 10.0 83 1.4 SSE 6 11 3 6 1018.3 1018.2 3.8
30/04:30am 12.9 11.6 10.1 83 1.4 SSE 7 11 4 6 1018.0 1017.9 3.8
30/04:00am 12.9 11.4 10.4 85 1.3 SSE 9 13 5 7 1017.6 1017.5 3.8
30/03:30am 12.6 11.3 10.1 85 1.3 SSE 7 9 4 5 1017.4 1017.3 3.8
30/03:00am 12.9 11.4 10.4 85 1.3 SSE 9 13 5 7 1017.3 1017.2 3.8
30/02:30am 13.6 11.0 10.8 83 1.5 S 15 20 8 11 1017.3 1017.2 3.8
30/02:00am 13.8 12.8 12.4 91 0.8 S 9 15 5 8 1017.2 1017.1 3.8
30/01:30am 14.0 13.2 12.9 93 0.6 SSE 9 15 5 8 1016.9 1016.8 3.8
30/01:00am 14.3 12.9 13.3 94 0.6 S 13 17 7 9 1016.7 1016.6 3.8
30/12:30am 14.6 14.4 13.6 94 0.6 S 7 11 4 6 1016.6 1016.5 3.4
30/12:00am 14.8 16.0 13.8 94 0.6 CALM 0 6 0 3 1016.3 1016.2 3.2
 
Date/Time
WST
Temp
°C
App
Temp
°C
Dew
Point
Rel
Hum
%
Delta-T
°C
Wind Press
QNH
hPa
Press
MSL
hPa
Rain
since 9 am
mm
Dir
 
Spd
km/h
Gust
km/h
Spd
kts
Gust
kts
29/11:30pm 14.9 16.1 13.9 94 0.6 CALM 0 0 0 0 1016.1 1016.0 3.2
29/11:00pm 15.0 15.1 13.9 93 0.6 SSE 6 11 3 6 1016.3 1016.2 3.2
29/10:30pm 15.1 15.0 13.8 92 0.7 SSW 7 11 4 6 1016.2 1016.1 3.2
29/10:00pm 15.3 14.1 14.0 92 0.7 SSW 13 26 7 14 1016.2 1016.1 3.2
29/09:30pm 15.6 13.7 14.3 92 0.7 SW 17 30 9 16 1015.9 1015.8 3.2
29/09:00pm 16.3 14.6 14.8 91 0.9 W 17 32 9 17 1015.7 1015.6 1.8
29/08:30pm 18.6 15.9 13.5 72 2.9 W 20 41 11 22 1015.2 1015.1 0.8
29/08:00pm 18.9 17.2 12.4 66 3.6 W 13 22 7 12 1015.1 1015.0 0.8
29/07:30pm 18.7 16.8 11.8 64 3.8 W 13 24 7 13 1015.2 1015.1 0.8
29/07:00pm 18.9 16.8 11.2 61 4.2 W 13 24 7 13 1014.9 1014.8 0.8
29/06:30pm 19.0 16.4 10.8 59 4.4 W 15 26 8 14 1014.9 1014.8 0.8
29/06:00pm 18.8 16.7 11.1 61 4.2 W 13 22 7 12 1014.6 1014.5 0.8
29/05:30pm 18.7 16.8 10.5 59 4.4 W 11 20 6 11 1014.6 1014.5 0.8
29/05:00pm 19.4 16.9 10.9 58 4.6 W 15 28 8 15 1014.5 1014.4 0.8
29/04:30pm 19.6 16.4 10.0 54 5.1 W 17 30 9 16 1014.7 1014.6 0.8
29/04:00pm 19.6 17.0 11.9 61 4.3 W 17 26 9 14 1014.7 1014.6 0.8
29/03:30pm 19.8 16.4 10.5 55 5.0 W 19 33 10 18 1014.7 1014.6 0.8
29/03:00pm 20.3 16.9 9.2 49 5.9 W 17 30 9 16 1014.6 1014.5 0.8
29/02:30pm 20.3 17.0 11.0 55 5.1 W 19 41 10 22 1014.5 1014.4 0.8
29/02:00pm 20.8 18.0 11.4 55 5.2 WSW 17 39 9 21 1014.3 1014.2 0.8
29/01:30pm 19.4 16.6 12.7 65 3.8 WSW 19 32 10 17 1014.8 1014.7 0.8
29/01:00pm 20.0 16.5 11.0 56 4.9 W 20 37 11 20 1014.9 1014.8 0.8
29/12:30pm 20.0 17.6 11.5 58 4.7 W 15 28 8 15 1015.2 1015.1 0.8
29/12:00pm 20.4 17.7 12.9 62 4.3 W 19 32 10 17 1015.3 1015.2 0.8
29/11:30am 20.8 18.7 13.5 63 4.2 W 17 32 9 17 1015.5 1015.4 0.8
29/11:00am 17.6 17.5 14.9 84 1.6 W 9 17 5 9 1015.8 1015.7 0.8
29/10:30am 18.4 18.9 15.5 83 1.7 W 7 15 4 8 1016.0 1015.9 0.4
29/10:00am 19.5 17.9 13.9 70 3.2 WNW 15 28 8 15 1016.0 1015.9 0.2
29/09:30am 18.7 18.8 14.4 76 2.5 NW 7 17 4 9 1016.1 1016.0 0.2
29/09:00am 17.1 15.9 14.0 82 1.8 WNW 13 26 7 14 1016.3 1016.2 1.2
29/08:30am 18.0 17.9 12.2 69 3.2 W 4 7 2 4 1016.0 1015.9 1.2
29/08:00am 17.0 16.5 12.1 73 2.7 WSW 6 11 3 6 1015.8 1015.7 1.2
29/07:30am 16.0 16.0 12.4 79 2.0 W 4 9 2 5 1015.5 1015.4 1.2
29/07:00am 16.2 15.5 12.0 76 2.3 W 7 13 4 7 1015.5 1015.4 1.2
29/06:30am 13.9 13.5 11.2 84 1.4 WNW 4 9 2 5 1015.4 1015.3 1.2
29/06:00am 13.4 13.3 10.9 85 1.3 WNW 2 6 1 3 1015.4 1015.3 1.2
29/05:30am 14.0 13.0 10.4 79 1.9 WSW 6 7 3 4 1015.2 1015.1 1.2
29/05:00am 14.5 14.3 10.3 76 2.2 WSW 2 7 1 4 1015.1 1015.0 1.2
29/04:30am 16.1 14.8 10.0 67 3.2 WSW 7 9 4 5 1015.2 1015.1 1.2
29/04:00am 16.5 14.9 10.1 66 3.4 WSW 9 15 5 8 1015.3 1015.2 1.2
29/03:30am 16.6 15.6 11.1 70 3.0 WSW 7 11 4 6 1015.4 1015.3 1.2
29/03:00am 15.2 14.9 13.4 89 1.0 WSW 7 17 4 9 1015.5 1015.4 1.2
29/02:30am 13.7 14.5 12.6 93 0.6 CALM 0 0 0 0 1015.6 1015.5 1.2
29/02:00am 13.9 14.8 12.8 93 0.6 CALM 0 0 0 0 1015.5 1015.4 1.2
29/01:30am 13.3 13.9 11.9 91 0.8 CALM 0 0 0 0 1015.5 1015.4 1.2
29/01:00am 13.6 14.2 11.8 89 1.0 CALM 0 0 0 0 1015.4 1015.3 1.2
29/12:30am 14.4 15.0 11.9 85 1.3 CALM 0 0 0 0 1015.6 1015.5 1.2
29/12:00am 15.0 14.5 12.0 82 1.6 WSW 6 9 3 5 1015.7 1015.6 1.2
 
Date/Time
WST
Temp
°C
App
Temp
°C
Dew
Point
Rel
Hum
%
Delta-T
°C
Wind Press
QNH
hPa
Press
MSL
hPa
Rain
since 9 am
mm
Dir
 
Spd
km/h
Gust
km/h
Spd
kts
Gust
kts
28/11:30pm 15.9 15.9 12.3 79 2.0 WSW 4 7 2 4 1015.8 1015.7 1.2
28/11:00pm 16.8 17.3 12.7 77 2.3 WSW 2 7 1 4 1015.8 1015.7 1.2
28/10:30pm 17.4 17.0 12.5 73 2.7 WSW 6 11 3 6 1015.9 1015.8 1.2
28/10:00pm 17.1 17.0 13.4 79 2.1 WSW 6 9 3 5 1015.9 1015.8 1.2
28/09:30pm 17.4 16.3 13.1 76 2.4 WSW 11 30 6 16 1015.9 1015.8 1.2
28/09:00pm 17.5 17.1 12.4 72 2.8 SW 6 11 3 6 1015.9 1015.8 1.2
28/08:30pm 18.0 16.4 12.7 71 3.0 SW 13 20 7 11 1015.7 1015.6 1.2
28/08:00pm 17.7 17.3 12.4 71 2.9 W 6 13 3 7 1015.6 1015.5 1.0
28/07:30pm 18.0 16.9 11.8 67 3.4 WSW 9 15 5 8 1015.5 1015.4 1.0
28/07:00pm 18.1 17.0 11.9 67 3.4 SW 9 17 5 9 1015.3 1015.2 1.0
28/06:30pm 18.2 16.4 12.0 67 3.4 SW 13 20 7 11 1014.9 1014.8 1.0
28/06:00pm 18.4 16.6 12.2 67 3.4 WSW 13 22 7 12 1014.5 1014.4 1.0
28/05:30pm 18.8 16.9 13.0 69 3.3 WSW 15 28 8 15 1014.2 1014.1 1.0
28/05:00pm 18.7 17.4 13.8 73 2.8 WSW 13 20 7 11 1014.1 1014.0 1.0
28/04:30pm 18.4 17.4 14.7 79 2.1 SW 13 22 7 12 1013.9 1013.8 1.0
28/04:00pm 17.7 17.0 15.3 86 1.4 SW 13 22 7 12 1014.0 1013.9 1.0
28/03:30pm 17.6 16.3 14.7 83 1.7 WSW 15 28 8 15 1013.8 1013.7 0.6
28/03:00pm 19.7 16.3 13.6 68 3.5 W 24 39 13 21 1013.9 1013.8 0.4
28/02:30pm 19.5 17.8 14.7 74 2.8 W 17 33 9 18 1013.7 1013.6 0.4
28/02:00pm 20.4 18.2 14.3 68 3.5 WNW 19 37 10 20 1013.5 1013.4 0.4
28/01:30pm 18.8 18.1 15.5 81 1.9 WNW 13 30 7 16 1014.0 1013.9 0.4
28/01:00pm 19.4 16.8 13.1 67 3.6 W 19 35 10 19 1014.3 1014.2 0.0
28/12:30pm 19.7 17.9 13.4 67 3.6 WNW 15 28 8 15 1014.5 1014.4 0.0
28/12:00pm 19.2 16.6 12.0 63 4.0 W 17 30 9 16 1015.1 1015.0 0.0
28/11:30am 19.7 16.1 9.9 53 5.2 W 19 33 10 18 1014.9 1014.8 0.0
28/11:00am 20.7 17.5 11.1 54 5.3 WNW 19 32 10 17 1014.9 1014.8 0.0
28/10:30am 19.8 17.2 12.1 61 4.3 WNW 17 28 9 15 1015.2 1015.1 0.0
28/10:00am 18.6 17.7 12.6 68 3.4 WSW 9 15 5 8 1015.9 1015.8 0.0
28/09:30am 17.6 14.5 12.3 71 2.9 W 20 35 11 19 1016.1 1016.0 0.0
28/09:00am 17.5 17.1 14.0 80 2.0 NW 9 19 5 10 1015.8 1015.7 2.0
28/08:30am 15.3 15.2 14.0 92 0.7 NW 7 15 4 8 1015.8 1015.7 2.0
28/08:00am 12.7 11.9 11.8 94 0.5 NE 7 9 4 5 1015.5 1015.4 2.0
28/07:30am 12.2 11.9 11.4 95 0.4 NE 4 9 2 5 1015.2 1015.1 2.0
28/07:00am 12.2 12.3 11.4 95 0.4 N 2 6 1 3 1015.2 1015.1 2.0
28/06:30am 11.9 10.9 11.1 95 0.4 NNE 7 11 4 6 1015.0 1014.9 2.0
28/06:00am 11.9 10.6 11.1 95 0.4 NNE 9 15 5 8 1015.0 1014.9 2.0
28/05:30am 12.5 11.7 11.7 95 0.4 NE 7 11 4 6 1015.1 1015.0 2.0
28/05:00am 13.5 13.3 12.9 96 0.3 WSW 6 13 3 7 1014.9 1014.8 2.0
28/04:30am 11.8 11.8 11.0 95 0.4 NNE 2 6 1 3 1015.0 1014.9 2.0
28/04:00am 12.0 12.4 11.2 95 0.4 CALM 0 0 0 0 1015.1 1015.0 2.0
28/03:30am 11.7 10.8 10.6 93 0.6 NNE 6 7 3 4 1015.4 1015.3 2.0
28/03:00am 12.1 12.1 9.8 86 1.2 CALM 0 7 0 4 1016.1 1016.0 0.2
28/02:30am 12.0 10.6 9.4 84 1.3 NNE 7 9 4 5 1016.0 1015.9 0.0
28/02:00am 11.9 10.7 9.5 85 1.2 NNE 6 7 3 4 1016.2 1016.1 0.0
28/01:30am 11.7 11.6 9.3 85 1.2 CALM 0 6 0 3 1016.1 1016.0 0.0
28/01:00am 12.4 11.6 9.6 83 1.4 N 4 9 2 5 1016.1 1016.0 0.0
28/12:30am 12.0 10.8 9.7 86 1.2 NNE 6 7 3 4 1016.1 1016.0 0.0
28/12:00am 11.3 10.1 9.4 88 1.0 NNE 6 9 3 5 1016.3 1016.2 0.0
 
Date/Time
WST
Temp
°C
App
Temp
°C
Dew
Point
Rel
Hum
%
Delta-T
°C
Wind Press
QNH
hPa
Press
MSL
hPa
Rain
since 9 am
mm
Dir
 
Spd
km/h
Gust
km/h
Spd
kts
Gust
kts
27/11:30pm 11.3 10.1 9.4 88 1.0 NNE 6 6 3 3 1016.6 1016.5 0.0
27/11:00pm 12.0 11.6 9.6 85 1.2 NNE 2 6 1 3 1016.6 1016.5 0.0
27/10:30pm 12.5 11.5 10.2 86 1.2 NNE 6 9 3 5 1016.8 1016.7 0.0
27/10:00pm 11.8 11.2 10.4 91 0.7 SSE 4 7 2 4 1017.1 1017.0 0.0
27/09:30pm 11.2 11.1 9.6 90 0.8 CALM 0 4 0 2 1017.4 1017.3 0.0
27/09:00pm 11.3 11.3 9.7 90 0.8 CALM 0 0 0 0 1017.5 1017.4 0.0
27/08:30pm 11.6 11.5 9.5 87 1.1 CALM 0 0 0 0 1017.4 1017.3 0.0
27/08:00pm 12.4 12.4 9.8 84 1.3 CALM 0 0 0 0 1017.3 1017.2 0.0
27/07:30pm 13.2 13.3 10.0 81 1.6 CALM 0 0 0 0 1017.3 1017.2 0.0
27/07:00pm 14.0 14.0 9.8 76 2.2 CALM 0 0 0 0 1017.2 1017.1 0.0
27/06:30pm 15.4 15.3 9.5 68 3.1 CALM 0 0 0 0 1016.8 1016.7 0.0
27/06:00pm 16.1 14.9 9.5 65 3.4 SSW 6 9 3 5 1016.6 1016.5 0.0
27/05:30pm 16.3 14.4 9.0 62 3.8 SW 9 17 5 9 1016.5 1016.4 0.0

Other Formats:

Comma delimited format used in spreadsheet applications
http://www.bom.gov.au/fwo/IDW60801/IDW60801.94608.axf

JavaScript Object Notation format (JSON) in row-major order
http://www.bom.gov.au/fwo/IDW60801/IDW60801.94608.json